Time;durP1;ratioP1;P1;durP2;ratioP2;P2;SDS_P1;SDS_P2;PMS_P1;PMS_P2;Temp;Humidity;BMP_temperature;BMP_pressure;BME280_temperature;BME280_humidity;BME280_pressure;Samples;Min_cycle;Max_cycle;Signal;HPM_P1;HPM_P2
2023/10/09 00:01:51;;;;;;;24.20;8.07;;;;;;;;;;4979481;28;20062;-68
2023/10/09 00:04:20;;;;;;;16.20;8.05;;;;;;;;;;4997160;28;20496;-68
2023/10/09 00:06:49;;;;;;;24.30;9.45;;;;;;;;;;4995384;28;20050;-68
2023/10/09 00:09:32;;;;;;;20.45;9.10;;;;;;;;;;5000085;28;20049;-68
2023/10/09 00:12:00;;;;;;;19.02;8.98;;;;;;;;;;4977012;28;20213;-68
2023/10/09 00:14:30;;;;;;;25.33;9.30;;;;;;;;;;4997425;28;20050;-68
2023/10/09 00:17:17;;;;;;;22.67;9.98;;;;;;;;;;4995344;28;20054;-68
2023/10/09 00:19:47;;;;;;;26.17;9.95;;;;;;;;;;4993514;28;20129;-68
2023/10/09 00:22:29;;;;;;;27.05;10.98;;;;;;;;;;4992764;28;20058;-68
2023/10/09 00:25:22;;;;;;;25.40;11.38;;;;;;;;;;4992259;28;20061;-68
2023/10/09 00:27:50;;;;;;;31.30;11.93;;;;;;;;;;4995587;28;20052;-67
2023/10/09 00:30:21;;;;;;;34.47;11.48;;;;;;;;;;4997922;28;20457;-69
2023/10/09 00:32:58;;;;;;;31.58;12.65;;;;;;;;;;4995183;28;20053;-68
2023/10/09 00:35:46;;;;;;;31.00;13.18;;;;;;;;;;4995281;28;20145;-68
2023/10/09 00:38:23;;;;;;;33.83;13.20;;;;;;;;;;4990597;28;20061;-67
2023/10/09 00:40:57;;;;;;;37.45;13.00;;;;;;;;;;4994075;28;20139;-68
2023/10/09 00:43:28;;;;;;;;;;;;;;;;;;4996221;28;20054;-68
2023/10/09 00:45:55;;;;;;;32.85;13.38;;;;;;;;;;4993440;28;19922;-67
2023/10/09 00:48:30;;;;;;;34.92;13.75;;;;;;;;;;4999440;28;20064;-68
2023/10/09 00:51:00;;;;;;;36.53;13.48;;;;;;;;;;4980222;28;20082;-67
2023/10/09 00:53:32;;;;;;;32.80;14.02;;;;;;;;;;4981301;28;20060;-68
2023/10/09 00:56:11;;;;;;;30.63;13.85;;;;;;;;;;4995548;28;20054;-67
2023/10/09 00:58:40;;;;;;;36.35;13.90;;;;;;;;;;4997426;28;20057;-70
2023/10/09 01:01:15;;;;;;;35.03;14.00;;;;;;;;;;4991042;28;20038;-67
2023/10/09 01:03:43;;;;;;;29.75;14.35;;;;;;;;;;4994463;28;20104;-68
2023/10/09 01:06:21;;;;;;;33.83;13.75;;;;;;;;;;4996757;28;20057;-67
2023/10/09 01:09:08;;;;;;;43.65;14.98;;;;;;;;;;4991220;28;20086;-69
2023/10/09 01:11:47;;;;;;;40.40;15.10;;;;;;;;;;4977392;28;20073;-68
2023/10/09 01:14:14;;;;;;;35.90;14.32;;;;;;;;;;4992224;28;20080;-69
2023/10/09 01:16:46;;;;;;;36.15;14.70;;;;;;;;;;4994909;28;20073;-69
2023/10/09 01:19:19;;;;;;;33.83;15.18;;;;;;;;;;4971548;28;20157;-68
2023/10/09 01:21:47;;;;;;;42.88;15.80;;;;;;;;;;4994322;28;20050;-68
2023/10/09 01:24:16;;;;;;;39.17;15.55;;;;;;;;;;4993225;28;20050;-69
2023/10/09 01:26:46;;;;;;;43.85;17.60;;;;;;;;;;4995993;28;20740;-68
2023/10/09 01:29:18;;;;;;;40.22;16.40;;;;;;;;;;4991044;28;20043;-67
2023/10/09 01:31:51;;;;;;;44.35;16.60;;;;;;;;;;4973945;28;20101;-68
2023/10/09 01:34:19;;;;;;;39.58;17.23;;;;;;;;;;4976864;28;20050;-68
2023/10/09 01:36:49;;;;;;;45.70;16.95;;;;;;;;;;4999228;28;20481;-68
2023/10/09 01:39:25;;;;;;;45.28;17.20;;;;;;;;;;4976681;28;20081;-68
2023/10/09 01:41:59;;;;;;;40.42;16.95;;;;;;;;;;4989664;28;20117;-70
2023/10/09 01:44:30;;;;;;;46.42;17.63;;;;;;;;;;4990096;28;20065;-68
2023/10/09 01:46:58;;;;;;;40.28;17.08;;;;;;;;;;4996434;28;20133;-67
2023/10/09 01:49:31;;;;;;;51.88;17.42;;;;;;;;;;4998985;28;20049;-69
2023/10/09 01:52:03;;;;;;;47.00;18.00;;;;;;;;;;4992838;28;20047;-68
2023/10/09 01:54:36;;;;;;;39.10;17.02;;;;;;;;;;4994759;28;20050;-68
2023/10/09 01:57:05;;;;;;;;;;;;;;;;;;4994698;28;20451;-67
2023/10/09 01:59:36;;;;;;;49.17;17.08;;;;;;;;;;4993096;28;20280;-69
2023/10/09 02:02:13;;;;;;;48.88;18.63;;;;;;;;;;4991443;28;20050;-67
2023/10/09 02:04:41;;;;;;;49.00;19.10;;;;;;;;;;4993328;28;20046;-71
2023/10/09 02:07:09;;;;;;;51.45;18.95;;;;;;;;;;4992940;28;20064;-68
2023/10/09 02:09:44;;;;;;;43.88;18.25;;;;;;;;;;4999111;28;20389;-68
2023/10/09 02:12:13;;;;;;;51.00;18.77;;;;;;;;;;4997880;28;20492;-68
2023/10/09 02:14:41;;;;;;;55.97;19.05;;;;;;;;;;4993986;28;20058;-67
2023/10/09 02:17:17;;;;;;;50.80;18.10;;;;;;;;;;4991418;28;20554;-67
2023/10/09 02:19:48;;;;;;;44.30;18.33;;;;;;;;;;4980580;28;20556;-68
2023/10/09 02:22:16;;;;;;;50.30;18.23;;;;;;;;;;4994564;28;20136;-68
2023/10/09 02:24:51;;;;;;;50.95;18.67;;;;;;;;;;4991304;28;20547;-68
2023/10/09 02:27:46;;;;;;;46.17;17.63;;;;;;;;;;4972907;28;20141;-68
2023/10/09 02:30:19;;;;;;;42.83;16.63;;;;;;;;;;4991934;28;20069;-68
2023/10/09 02:32:53;;;;;;;48.58;18.15;;;;;;;;;;4992419;28;20046;-68
2023/10/09 02:35:22;;;;;;;46.83;18.48;;;;;;;;;;4993367;28;20059;-68
2023/10/09 02:37:49;;;;;;;44.97;18.23;;;;;;;;;;4994071;28;20054;-68
2023/10/09 02:40:25;;;;;;;46.85;17.50;;;;;;;;;;4994919;28;20042;-68
2023/10/09 02:42:53;;;;;;;42.30;17.27;;;;;;;;;;5000568;28;20050;-68
2023/10/09 02:45:28;;;;;;;46.85;17.80;;;;;;;;;;4974881;28;20089;-68
2023/10/09 02:47:55;;;;;;;43.78;16.83;;;;;;;;;;4993898;28;20520;-69
2023/10/09 02:50:28;;;;;;;42.45;16.38;;;;;;;;;;4995787;28;20050;-68
2023/10/09 02:53:00;;;;;;;41.57;16.13;;;;;;;;;;4988751;28;20055;-68
2023/10/09 02:55:30;;;;;;;41.85;14.82;;;;;;;;;;4995013;28;20121;-68
2023/10/09 02:58:07;;;;;;;40.33;14.73;;;;;;;;;;4973915;28;20054;-67
2023/10/09 03:00:36;;;;;;;43.30;14.45;;;;;;;;;;4986075;28;20054;-67
2023/10/09 03:03:06;;;;;;;34.05;13.70;;;;;;;;;;4996137;28;20053;-68
2023/10/09 03:05:33;;;;;;;34.42;12.32;;;;;;;;;;4996951;28;20057;-67
2023/10/09 03:08:02;;;;;;;24.02;10.25;;;;;;;;;;4993397;28;20502;-68
2023/10/09 03:10:34;;;;;;;24.77;9.45;;;;;;;;;;4979128;28;20065;-67
2023/10/09 03:13:03;;;;;;;19.75;8.27;;;;;;;;;;4999589;28;20462;-68
2023/10/09 03:15:35;;;;;;;18.45;7.95;;;;;;;;;;4992920;28;20072;-67
2023/10/09 03:18:04;;;;;;;19.77;7.53;;;;;;;;;;4975180;28;20062;-69
2023/10/09 03:20:31;;;;;;;19.92;6.88;;;;;;;;;;4991338;28;20058;-68
2023/10/09 03:23:01;;;;;;;14.07;5.97;;;;;;;;;;4993016;28;20070;-68
2023/10/09 03:25:28;;;;;;;17.60;6.32;;;;;;;;;;4993930;28;20129;-69
2023/10/09 03:27:58;;;;;;;17.23;6.63;;;;;;;;;;4971563;28;20047;-68
2023/10/09 03:30:25;;;;;;;16.25;6.20;;;;;;;;;;5001350;28;20511;-68
2023/10/09 03:32:53;;;;;;;15.25;6.05;;;;;;;;;;4995946;28;20057;-68
2023/10/09 03:35:25;;;;;;;15.27;5.50;;;;;;;;;;4991469;28;20081;-68
2023/10/09 03:38:00;;;;;;;16.95;5.70;;;;;;;;;;4990349;28;20528;-68
2023/10/09 03:40:28;;;;;;;20.35;4.97;;;;;;;;;;4968167;28;20062;-70
2023/10/09 03:42:57;;;;;;;15.13;5.30;;;;;;;;;;4973824;28;20126;-69
2023/10/09 03:45:29;;;;;;;15.30;5.30;;;;;;;;;;4991453;28;20042;-69
2023/10/09 03:48:02;;;;;;;12.43;4.82;;;;;;;;;;4988990;28;20366;-68
2023/10/09 03:50:35;;;;;;;10.68;4.82;;;;;;;;;;4990678;28;20113;-68
2023/10/09 03:53:07;;;;;;;15.02;5.03;;;;;;;;;;4975424;28;20105;-68
2023/10/09 03:55:38;;;;;;;14.57;4.63;;;;;;;;;;4984066;28;20078;-68
2023/10/09 03:58:06;;;;;;;11.27;5.00;;;;;;;;;;4990136;28;20051;-69
2023/10/09 04:00:44;;;;;;;12.05;5.13;;;;;;;;;;4995264;28;20038;-70
2023/10/09 04:03:14;;;;;;;11.70;4.72;;;;;;;;;;4972689;28;20101;-68
2023/10/09 04:05:42;;;;;;;14.23;4.75;;;;;;;;;;4976785;28;20045;-70
2023/10/09 04:08:13;;;;;;;11.48;4.78;;;;;;;;;;4992998;28;20051;-68
2023/10/09 04:10:52;;;;;;;16.35;4.88;;;;;;;;;;4988723;28;20046;-68
2023/10/09 04:13:26;;;;;;;14.98;4.65;;;;;;;;;;4989967;28;20054;-69
2023/10/09 04:15:53;;;;;;;17.42;4.65;;;;;;;;;;4988583;28;20393;-68
2023/10/09 04:18:28;;;;;;;11.93;4.95;;;;;;;;;;4998078;28;20058;-69
2023/10/09 04:26:21;;;;;;;15.40;4.97;;;;;;;;;;4992263;28;20516;-68
2023/10/09 04:28:51;;;;;;;14.82;4.90;;;;;;;;;;4992916;28;20050;-67
2023/10/09 04:31:21;;;;;;;16.75;5.35;;;;;;;;;;4991989;28;20068;-68
2023/10/09 04:33:57;;;;;;;19.98;5.30;;;;;;;;;;4991388;28;20057;-67
2023/10/09 04:36:28;;;;;;;16.60;5.20;;;;;;;;;;4993912;28;20076;-67
2023/10/09 04:42:19;;;;;;;15.90;5.70;;;;;;;;;;5110722;27;20553;-65
2023/10/09 04:47:39;;;;;;;18.52;5.85;;;;;;;;;;5090742;28;20036;-64
2023/10/09 04:50:08;;;;;;;17.67;6.03;;;;;;;;;;5089379;28;20044;-64
2023/10/09 04:52:53;;;;;;;22.55;5.00;;;;;;;;;;5088247;28;20094;-64
2023/10/09 04:55:24;;;;;;;16.73;5.13;;;;;;;;;;5086739;28;20557;-64
2023/10/09 04:58:08;;;;;;;17.95;5.50;;;;;;;;;;5086472;28;20052;-65
2023/10/09 05:01:02;;;;;;;23.52;5.78;;;;;;;;;;5087549;28;20051;-64
2023/10/09 05:03:38;;;;;;;17.83;5.78;;;;;;;;;;5083126;28;20395;-64
2023/10/09 05:06:20;;;;;;;18.65;5.68;;;;;;;;;;5090682;28;20039;-64
2023/10/09 05:08:48;;;;;;;14.45;5.55;;;;;;;;;;5088335;28;20060;-65
2023/10/09 05:11:34;;;;;;;20.98;5.10;;;;;;;;;;5086640;28;20044;-65
2023/10/09 05:14:14;;;;;;;20.65;5.47;;;;;;;;;;5089076;28;20052;-64
2023/10/09 05:16:54;;;;;;;14.38;5.60;;;;;;;;;;5086786;28;20052;-63
2023/10/09 05:19:33;;;;;;;17.05;5.35;;;;;;;;;;5084906;28;20055;-63
2023/10/09 05:22:07;;;;;;;14.65;5.55;;;;;;;;;;5085003;28;20054;-63
2023/10/09 05:24:43;;;;;;;13.38;5.40;;;;;;;;;;5084911;28;20043;-64
2023/10/09 05:27:24;;;;;;;21.52;6.57;;;;;;;;;;5083342;28;20132;-64
2023/10/09 05:30:12;;;;;;;17.73;6.00;;;;;;;;;;5085934;28;20044;-63
2023/10/09 05:32:48;;;;;;;11.45;4.88;;;;;;;;;;5084829;28;20068;-64
2023/10/09 05:35:16;;;;;;;21.02;5.35;;;;;;;;;;5086668;28;20047;-64
2023/10/09 05:37:46;;;;;;;22.13;5.57;;;;;;;;;;5089538;28;20048;-65
2023/10/09 05:40:30;;;;;;;18.05;6.03;;;;;;;;;;5085676;28;20041;-64
2023/10/09 05:43:02;;;;;;;21.13;5.18;;;;;;;;;;5087145;28;20056;-63
2023/10/09 05:51:12;;;;;;;15.75;5.28;;;;;;;;;;5129807;27;20502;-64
2023/10/09 06:04:53;;;;;;;16.35;4.97;;;;;;;;;;5128227;27;20043;-63
2023/10/09 06:07:40;;;;;;;10.65;4.65;;;;;;;;;;5128029;27;20126;-64
2023/10/09 06:10:17;;;;;;;20.25;5.00;;;;;;;;;;5123290;27;20448;-63
2023/10/09 06:12:56;;;;;;;24.35;4.97;;;;;;;;;;5133479;27;20495;-65
2023/10/09 06:15:51;;;;;;;15.18;4.97;;;;;;;;;;5129531;27;20047;-63
2023/10/09 06:18:32;;;;;;;17.75;4.75;;;;;;;;;;5124781;27;20044;-64
2023/10/09 06:21:39;;;;;;;16.55;4.57;;;;;;;;;;5130748;27;20124;-63
2023/10/09 06:24:09;;;;;;;14.75;4.53;;;;;;;;;;5122741;27;20043;-63
2023/10/09 06:26:37;;;;;;;18.95;4.45;;;;;;;;;;5126975;27;20048;-64
2023/10/09 06:29:16;;;;;;;17.15;4.93;;;;;;;;;;5130619;27;20043;-63
2023/10/09 06:31:59;;;;;;;16.50;4.65;;;;;;;;;;5127736;27;20047;-63
2023/10/09 06:34:32;;;;;;;26.83;4.90;;;;;;;;;;5122719;27;20052;-65
2023/10/09 06:37:07;;;;;;;20.58;5.32;;;;;;;;;;5130179;27;20043;-68
2023/10/09 06:39:50;;;;;;;13.00;4.50;;;;;;;;;;5127992;27;20105;-67
2023/10/09 06:42:33;;;;;;;16.43;4.57;;;;;;;;;;5126838;27;20058;-67
2023/10/09 06:45:15;;;;;;;20.65;5.70;;;;;;;;;;5134818;27;20296;-67
2023/10/09 06:47:53;;;;;;;18.90;4.72;;;;;;;;;;5122233;27;20082;-67
2023/10/09 06:50:25;;;;;;;21.80;5.38;;;;;;;;;;5124711;27;20048;-67
2023/10/09 06:53:20;;;;;;;23.50;5.30;;;;;;;;;;5122048;27;20451;-68
2023/10/09 06:55:50;;;;;;;18.40;5.10;;;;;;;;;;5126008;27;20058;-67
2023/10/09 06:58:22;;;;;;;19.77;5.15;;;;;;;;;;5123182;27;20050;-67
2023/10/09 07:00:54;;;;;;;18.13;5.00;;;;;;;;;;5111076;28;20097;-68
2023/10/09 07:03:29;;;;;;;23.30;5.03;;;;;;;;;;5103903;27;20027;-67
2023/10/09 07:06:05;;;;;;;19.38;5.57;;;;;;;;;;5107151;28;20086;-67
2023/10/09 07:08:37;;;;;;;17.63;4.68;;;;;;;;;;5109893;28;20044;-67
2023/10/09 07:13:52;;;;;;;21.20;6.45;;;;;;;;;;5107710;28;20039;-68
2023/10/09 07:16:23;;;;;;;20.17;5.47;;;;;;;;;;5108510;28;20048;-67
2023/10/09 07:18:54;;;;;;;22.73;5.80;;;;;;;;;;5109255;27;20394;-67
2023/10/09 07:21:27;;;;;;;19.10;5.22;;;;;;;;;;5113563;28;20048;-67
2023/10/09 07:23:56;;;;;;;;;;;;;;;;;;5110854;27;20082;-67
2023/10/09 07:26:36;;;;;;;20.48;4.60;;;;;;;;;;5111980;28;19919;-67
2023/10/09 07:29:16;;;;;;;18.90;5.15;;;;;;;;;;5109393;28;20152;-67
2023/10/09 07:31:45;;;;;;;21.20;5.22;;;;;;;;;;5106824;27;20088;-67
2023/10/09 07:37:03;;;;;;;21.80;5.57;;;;;;;;;;5112066;28;20043;-67
2023/10/09 07:39:35;;;;;;;21.08;5.18;;;;;;;;;;5109066;28;20452;-67
2023/10/09 07:42:19;;;;;;;16.50;5.18;;;;;;;;;;5112351;27;20116;-67
2023/10/09 07:44:53;;;;;;;18.58;5.25;;;;;;;;;;5106022;27;20445;-67
2023/10/09 07:48:00;;;;;;;28.40;5.50;;;;;;;;;;5107556;28;20083;-67
2023/10/09 07:50:37;;;;;;;15.45;4.88;;;;;;;;;;5108063;27;20497;-67
2023/10/09 07:53:17;;;;;;;16.90;5.07;;;;;;;;;;5107131;28;20135;-67
2023/10/09 07:55:54;;;;;;;23.50;5.40;;;;;;;;;;5102404;27;20052;-68
2023/10/09 07:58:25;;;;;;;19.40;5.47;;;;;;;;;;5101678;28;20377;-67
2023/10/09 08:01:15;;;;;;;23.23;4.97;;;;;;;;;;5102743;27;20098;-67
2023/10/09 08:03:45;;;;;;;27.50;5.80;;;;;;;;;;5108679;28;20048;-65
2023/10/09 08:14:49;;;;;;;24.65;5.50;;;;;;;;;;5054283;28;20048;-64
2023/10/09 08:17:15;;;;;;;26.38;4.80;;;;;;;;;;5095426;28;20089;-64
2023/10/09 08:19:53;;;;;;;20.85;5.32;;;;;;;;;;5111360;28;20086;-64
2023/10/09 08:25:08;;;;;;;17.40;5.30;;;;;;;;;;5108063;27;20055;-63
2023/10/09 08:27:54;;;;;;;24.65;5.00;;;;;;;;;;5118163;27;20515;-63
2023/10/09 08:30:40;;;;;;;26.00;5.38;;;;;;;;;;5114953;27;20046;-63
2023/10/09 08:35:50;;;;;;;25.48;5.05;;;;;;;;;;5093878;28;20043;-63
2023/10/09 08:38:23;;;;;;;21.92;5.03;;;;;;;;;;5111999;27;20048;-62
2023/10/09 08:40:50;;;;;;;16.90;5.23;;;;;;;;;;5109579;28;20118;-62
2023/10/09 08:43:19;;;;;;;18.60;4.70;;;;;;;;;;5110759;28;20143;-62
2023/10/09 08:45:48;;;;;;;25.70;5.05;;;;;;;;;;5108218;28;20043;-63
2023/10/09 08:48:16;;;;;;;17.90;4.35;;;;;;;;;;5111413;27;20051;-65
2023/10/09 08:50:44;;;;;;;22.67;4.80;;;;;;;;;;5113134;27;20051;-64
2023/10/09 08:53:10;;;;;;;20.13;4.82;;;;;;;;;;5111292;27;20062;-64
2023/10/09 08:55:38;;;;;;;27.02;4.90;;;;;;;;;;5112066;27;20055;-64
2023/10/09 08:58:10;;;;;;;19.90;5.20;;;;;;;;;;5110041;27;20474;-63
2023/10/09 09:00:37;;;;;;;18.25;5.25;;;;;;;;;;5112814;27;20052;-65
2023/10/09 09:03:06;;;;;;;19.77;4.63;;;;;;;;;;5108984;28;20043;-63
2023/10/09 09:05:35;;;;;;;17.63;5.00;;;;;;;;;;5106859;28;20058;-63
2023/10/09 09:08:03;;;;;;;17.65;4.72;;;;;;;;;;5108164;28;20043;-63
2023/10/09 09:10:35;;;;;;;18.85;5.20;;;;;;;;;;5104809;28;20138;-63
2023/10/09 09:13:03;;;;;;;23.98;5.60;;;;;;;;;;5109367;27;20067;-62
2023/10/09 09:15:31;;;;;;;21.08;5.07;;;;;;;;;;5111766;27;20096;-63
2023/10/09 09:18:06;;;;;;;19.20;4.60;;;;;;;;;;5105582;28;20048;-63
2023/10/09 09:20:36;;;;;;;29.60;5.60;;;;;;;;;;5102313;28;20449;-63
2023/10/09 09:23:05;;;;;;;21.70;5.13;;;;;;;;;;5110042;28;20498;-62
2023/10/09 09:25:44;;;;;;;20.05;5.22;;;;;;;;;;5106299;27;20126;-62
2023/10/09 09:28:12;;;;;;;18.75;5.07;;;;;;;;;;5108699;28;20391;-62
2023/10/09 09:30:40;;;;;;;21.45;5.20;;;;;;;;;;5097605;27;20123;-62
2023/10/09 09:33:39;;;;;;;26.35;5.47;;;;;;;;;;5111751;27;20051;-67
2023/10/09 09:36:11;;;;;;;13.90;4.47;;;;;;;;;;5102901;28;20099;-65
2023/10/09 09:38:48;;;;;;;22.05;5.25;;;;;;;;;;5105261;28;20134;-66
2023/10/09 09:41:24;;;;;;;20.20;5.20;;;;;;;;;;5105342;28;20482;-65
2023/10/09 09:43:53;;;;;;;20.52;4.63;;;;;;;;;;5104009;28;20414;-65
2023/10/09 09:46:20;;;;;;;19.48;5.50;;;;;;;;;;5109673;28;20066;-64
2023/10/09 09:48:48;;;;;;;25.45;5.78;;;;;;;;;;5104081;28;20051;-64
2023/10/09 09:51:18;;;;;;;25.50;5.45;;;;;;;;;;5106383;28;20052;-64
2023/10/09 09:53:48;;;;;;;23.92;5.55;;;;;;;;;;5105905;28;20509;-65
2023/10/09 09:56:17;;;;;;;19.33;5.50;;;;;;;;;;5110089;28;20047;-65
2023/10/09 09:58:46;;;;;;;29.63;5.68;;;;;;;;;;5099255;28;20052;-64
2023/10/09 10:01:24;;;;;;;16.77;5.97;;;;;;;;;;5100520;28;20546;-64
2023/10/09 10:03:56;;;;;;;19.80;5.25;;;;;;;;;;5101229;28;20058;-65
2023/10/09 10:06:26;;;;;;;15.68;4.85;;;;;;;;;;5101961;28;20054;-64
2023/10/09 10:08:54;;;;;;;22.48;5.22;;;;;;;;;;5107230;28;20047;-65
2023/10/09 10:11:40;;;;;;;18.10;4.72;;;;;;;;;;5111865;27;20108;-64
2023/10/09 10:14:11;;;;;;;22.95;5.38;;;;;;;;;;5115130;28;20083;-64
2023/10/09 10:17:01;;;;;;;17.50;4.43;;;;;;;;;;5115389;28;20092;-65
2023/10/09 10:19:54;;;;;;;19.17;4.63;;;;;;;;;;5108572;28;20130;-67
2023/10/09 10:22:29;;;;;;;20.45;5.07;;;;;;;;;;5105909;28;20050;-66
2023/10/09 10:24:57;;;;;;;15.82;4.65;;;;;;;;;;5107458;28;20055;-65
2023/10/09 10:27:33;;;;;;;13.80;4.63;;;;;;;;;;5110112;27;20048;-65
2023/10/09 10:30:23;;;;;;;18.75;4.55;;;;;;;;;;5109406;28;20429;-65
2023/10/09 10:32:57;;;;;;;10.57;4.40;;;;;;;;;;5104110;28;20051;-66
2023/10/09 10:35:39;;;;;;;15.75;4.13;;;;;;;;;;5107430;28;20379;-66
2023/10/09 10:38:21;;;;;;;9.70;3.70;;;;;;;;;;5108992;27;20069;-66
2023/10/09 10:40:57;;;;;;;10.65;3.45;;;;;;;;;;5117095;27;20422;-65
2023/10/09 10:43:32;;;;;;;10.10;3.63;;;;;;;;;;5111212;28;20100;-68
2023/10/09 10:46:13;;;;;;;15.77;3.42;;;;;;;;;;5107192;27;20082;-65
2023/10/09 10:48:46;;;;;;;11.48;3.13;;;;;;;;;;5105241;27;20168;-66
2023/10/09 10:51:15;;;;;;;21.00;2.90;;;;;;;;;;5109337;27;20052;-66
2023/10/09 10:53:52;;;;;;;11.35;2.72;;;;;;;;;;5109217;28;20047;-65
2023/10/09 10:56:24;;;;;;;13.45;2.75;;;;;;;;;;5109007;27;20051;-65
2023/10/09 10:59:11;;;;;;;12.63;3.10;;;;;;;;;;5105749;27;20063;-66
2023/10/09 11:04:27;;;;;;;13.07;2.75;;;;;;;;;;5099688;28;20039;-66
2023/10/09 11:07:00;;;;;;;14.48;3.20;;;;;;;;;;5112373;27;20054;-66
2023/10/09 11:09:36;;;;;;;12.23;2.42;;;;;;;;;;5111711;27;20044;-66
2023/10/09 11:12:21;;;;;;;8.02;2.67;;;;;;;;;;5112980;27;20056;-66
2023/10/09 11:15:05;;;;;;;8.85;2.40;;;;;;;;;;5108938;28;20426;-67
2023/10/09 11:17:32;;;;;;;11.43;2.33;;;;;;;;;;5105691;27;20044;-66
2023/10/09 11:20:22;;;;;;;13.98;2.78;;;;;;;;;;5106252;27;20055;-66
2023/10/09 11:23:14;;;;;;;12.18;3.08;;;;;;;;;;5111645;27;20061;-66
2023/10/09 11:25:38;;;;;;;12.82;2.72;;;;;;;;;;5106246;28;20096;-68
2023/10/09 11:28:27;;;;;;;16.17;2.72;;;;;;;;;;5110753;27;20105;-66
2023/10/09 11:30:56;;;;;;;13.95;2.72;;;;;;;;;;5107201;28;20594;-66
2023/10/09 11:33:22;;;;;;;13.13;2.75;;;;;;;;;;5105310;28;20048;-66
2023/10/09 11:35:58;;;;;;;10.43;2.30;;;;;;;;;;5108828;28;20123;-66
2023/10/09 11:38:25;;;;;;;9.38;2.58;;;;;;;;;;5115418;27;20096;-66
2023/10/09 11:41:18;;;;;;;10.35;2.40;;;;;;;;;;5113588;27;20054;-66
2023/10/09 11:43:54;;;;;;;7.85;2.30;;;;;;;;;;5119549;27;20055;-67
2023/10/09 11:54:51;;;;;;;9.98;2.45;;;;;;;;;;5112214;27;20111;-66
2023/10/09 11:57:18;;;;;;;10.10;2.28;;;;;;;;;;5109859;27;20043;-66
2023/10/09 11:59:52;;;;;;;9.93;2.40;;;;;;;;;;5107683;27;20040;-67
2023/10/09 12:02:21;;;;;;;8.23;1.80;;;;;;;;;;5112957;27;20051;-66
2023/10/09 12:04:48;;;;;;;12.40;2.33;;;;;;;;;;5110648;27;20047;-66
2023/10/09 12:07:16;;;;;;;17.02;2.53;;;;;;;;;;5109682;27;20051;-68
2023/10/09 12:09:43;;;;;;;8.15;1.77;;;;;;;;;;5108354;28;20044;-66
2023/10/09 12:12:10;;;;;;;6.95;2.13;;;;;;;;;;5112628;27;20054;-66
2023/10/09 12:14:39;;;;;;;8.60;2.20;;;;;;;;;;5113106;27;20043;-66
2023/10/09 12:17:08;;;;;;;9.55;2.05;;;;;;;;;;5113812;27;20043;-67
2023/10/09 12:19:36;;;;;;;13.20;2.10;;;;;;;;;;5107170;28;20059;-66
2023/10/09 12:22:03;;;;;;;11.90;2.17;;;;;;;;;;5117448;27;20054;-66
2023/10/09 12:24:31;;;;;;;11.35;2.03;;;;;;;;;;5107814;28;20108;-66
2023/10/09 12:26:58;;;;;;;10.30;2.83;;;;;;;;;;5114557;27;20055;-66
2023/10/09 12:29:29;;;;;;;9.45;2.38;;;;;;;;;;5106369;27;20043;-66
2023/10/09 12:31:59;;;;;;;8.02;2.10;;;;;;;;;;5113452;27;20077;-66
2023/10/09 12:34:27;;;;;;;8.93;2.28;;;;;;;;;;5104213;28;20036;-67
2023/10/09 12:36:55;;;;;;;13.13;3.05;;;;;;;;;;5111061;27;20039;-66
2023/10/09 12:39:22;;;;;;;4.70;1.77;;;;;;;;;;5106518;27;20108;-67
2023/10/09 12:41:53;;;;;;;7.40;2.25;;;;;;;;;;5116067;27;20452;-66
2023/10/09 12:44:20;;;;;;;8.55;1.90;;;;;;;;;;5111732;27;20142;-66
2023/10/09 12:46:52;;;;;;;9.38;2.33;;;;;;;;;;5109561;27;20490;-67
2023/10/09 12:49:24;;;;;;;12.70;2.40;;;;;;;;;;5108222;27;20048;-66
2023/10/09 12:51:53;;;;;;;10.57;1.70;;;;;;;;;;5106173;28;20051;-67
2023/10/09 12:54:26;;;;;;;10.55;2.50;;;;;;;;;;5109877;27;20055;-66
2023/10/09 12:56:53;;;;;;;9.40;2.30;;;;;;;;;;5106281;27;20040;-67
2023/10/09 12:59:21;;;;;;;10.55;2.30;;;;;;;;;;5101244;28;20047;-66
2023/10/09 13:01:52;;;;;;;8.07;2.97;;;;;;;;;;5110460;28;20451;-67
2023/10/09 13:04:22;;;;;;;9.68;1.90;;;;;;;;;;5101171;27;20054;-66
2023/10/09 13:06:53;;;;;;;6.47;1.75;;;;;;;;;;5111009;28;20083;-66
2023/10/09 13:09:32;;;;;;;11.80;2.45;;;;;;;;;;5102573;28;20087;-66
2023/10/09 13:12:00;;;;;;;12.57;2.33;;;;;;;;;;5107921;28;20081;-66
2023/10/09 13:14:28;;;;;;;9.77;2.10;;;;;;;;;;5109703;28;20058;-67
2023/10/09 13:16:56;;;;;;;9.95;1.83;;;;;;;;;;5115982;27;20046;-66
2023/10/09 13:19:25;;;;;;;6.50;1.70;;;;;;;;;;5112975;27;20070;-66
2023/10/09 13:21:53;;;;;;;8.07;1.70;;;;;;;;;;5112023;27;20047;-66
2023/10/09 13:24:29;;;;;;;8.18;2.20;;;;;;;;;;5111548;27;20131;-66
2023/10/09 13:26:58;;;;;;;9.40;1.70;;;;;;;;;;5108058;28;20403;-66
2023/10/09 13:29:25;;;;;;;11.07;1.90;;;;;;;;;;5109875;28;20475;-66
2023/10/09 13:31:57;;;;;;;7.18;2.47;;;;;;;;;;5110767;28;20043;-67
2023/10/09 13:34:27;;;;;;;6.25;1.73;;;;;;;;;;5108730;27;20044;-66
2023/10/09 13:36:57;;;;;;;13.68;2.00;;;;;;;;;;5109769;28;20059;-67
2023/10/09 13:39:26;;;;;;;5.63;1.92;;;;;;;;;;5105549;28;20124;-66
2023/10/09 13:41:57;;;;;;;11.85;1.92;;;;;;;;;;5109454;28;20050;-67
2023/10/09 13:44:27;;;;;;;6.05;1.70;;;;;;;;;;5107578;28;20054;-67
2023/10/09 13:46:54;;;;;;;6.97;1.73;;;;;;;;;;5109245;28;20100;-67
2023/10/09 13:49:22;;;;;;;7.78;1.80;;;;;;;;;;5110178;28;20130;-67
2023/10/09 13:51:50;;;;;;;6.95;1.50;;;;;;;;;;5113597;27;20402;-66
2023/10/09 13:54:21;;;;;;;7.28;1.38;;;;;;;;;;5109368;28;20050;-68
2023/10/09 13:56:52;;;;;;;8.32;1.83;;;;;;;;;;5107348;28;20043;-67
2023/10/09 13:59:21;;;;;;;4.65;1.90;;;;;;;;;;5106489;28;20047;-66
2023/10/09 14:01:48;;;;;;;6.55;1.75;;;;;;;;;;5104658;28;20054;-66
2023/10/09 14:04:18;;;;;;;8.32;1.58;;;;;;;;;;5105159;28;20051;-67
2023/10/09 14:06:45;;;;;;;4.25;1.83;;;;;;;;;;5104903;28;20101;-67
2023/10/09 14:09:27;;;;;;;3.40;1.20;;;;;;;;;;5106517;28;20039;-67
2023/10/09 14:12:05;;;;;;;5.63;1.45;;;;;;;;;;5112362;27;20043;-67
2023/10/09 14:14:34;;;;;;;5.72;1.30;;;;;;;;;;5108260;27;20050;-67
2023/10/09 14:17:01;;;;;;;9.35;1.65;;;;;;;;;;5110787;28;20047;-66
2023/10/09 14:19:33;;;;;;;6.18;1.38;;;;;;;;;;5108772;28;20043;-67
2023/10/09 14:22:05;;;;;;;3.10;1.13;;;;;;;;;;5109723;28;20044;-67
2023/10/09 14:24:34;;;;;;;4.82;1.23;;;;;;;;;;5108335;28;20044;-67
2023/10/09 14:27:04;;;;;;;9.80;1.80;;;;;;;;;;5114157;28;20135;-66
2023/10/09 14:29:32;;;;;;;5.72;1.90;;;;;;;;;;5111109;27;20059;-67
2023/10/09 14:32:02;;;;;;;6.45;2.08;;;;;;;;;;5112864;28;20044;-67
2023/10/09 14:34:32;;;;;;;11.63;1.58;;;;;;;;;;5107781;28;20058;-66
2023/10/09 14:37:01;;;;;;;5.75;1.35;;;;;;;;;;5108059;27;20083;-67
2023/10/09 14:39:29;;;;;;;9.00;1.80;;;;;;;;;;5109434;28;20043;-66
2023/10/09 14:41:57;;;;;;;6.75;1.75;;;;;;;;;;5115205;27;20069;-67
2023/10/09 14:44:27;;;;;;;8.25;1.90;;;;;;;;;;5108912;28;20075;-67
2023/10/09 14:46:56;;;;;;;8.95;1.38;;;;;;;;;;5109327;28;20141;-68
2023/10/09 14:49:24;;;;;;;10.75;1.70;;;;;;;;;;5107831;27;20043;-67
2023/10/09 14:51:51;;;;;;;6.40;1.73;;;;;;;;;;5108182;28;20050;-66
2023/10/09 14:54:18;;;;;;;5.00;1.58;;;;;;;;;;5107341;27;20040;-66
2023/10/09 14:56:46;;;;;;;7.35;1.40;;;;;;;;;;5113001;27;20048;-68
2023/10/09 14:59:13;;;;;;;5.97;1.27;;;;;;;;;;5111111;28;20410;-69
2023/10/09 15:01:42;;;;;;;8.27;1.55;;;;;;;;;;5106900;27;20055;-66
2023/10/09 15:04:14;;;;;;;4.80;1.20;;;;;;;;;;5108272;27;20047;-66
2023/10/09 15:06:41;;;;;;;6.85;1.25;;;;;;;;;;5103301;28;20498;-67
2023/10/09 15:09:09;;;;;;;5.20;1.25;;;;;;;;;;5106750;27;20040;-67
2023/10/09 15:11:38;;;;;;;6.88;1.60;;;;;;;;;;5109919;28;20077;-67
2023/10/09 15:14:06;;;;;;;5.30;1.60;;;;;;;;;;5109608;28;20044;-67
2023/10/09 15:16:34;;;;;;;5.50;1.42;;;;;;;;;;5105983;27;20050;-66
2023/10/09 15:19:03;;;;;;;4.25;1.27;;;;;;;;;;5111385;27;20052;-66
2023/10/09 15:21:32;;;;;;;5.18;1.35;;;;;;;;;;5105566;28;20043;-67
2023/10/09 15:23:59;;;;;;;8.20;1.50;;;;;;;;;;5112110;28;20158;-67
2023/10/09 15:26:32;;;;;;;6.60;1.67;;;;;;;;;;5107732;28;20052;-67
2023/10/09 15:29:03;;;;;;;3.35;1.40;;;;;;;;;;5110993;28;20046;-67
2023/10/09 15:31:32;;;;;;;5.63;1.50;;;;;;;;;;5110258;28;20070;-67
2023/10/09 15:33:59;;;;;;;5.47;1.58;;;;;;;;;;5109153;28;20052;-67
2023/10/09 15:36:32;;;;;;;5.45;1.25;;;;;;;;;;5105726;28;20051;-67
2023/10/09 15:39:00;;;;;;;3.33;1.35;;;;;;;;;;5109563;28;20127;-66
2023/10/09 15:41:31;;;;;;;4.13;1.63;;;;;;;;;;5112407;28;20055;-67
2023/10/09 15:43:59;;;;;;;7.18;1.60;;;;;;;;;;5109694;28;20530;-67
2023/10/09 15:46:26;;;;;;;5.00;1.27;;;;;;;;;;5112020;28;20107;-67
2023/10/09 15:48:55;;;;;;;7.15;1.35;;;;;;;;;;5108747;28;20052;-67
2023/10/09 15:51:23;;;;;;;7.63;1.77;;;;;;;;;;5108532;28;20051;-67
2023/10/09 15:53:51;;;;;;;3.80;1.48;;;;;;;;;;5110717;28;20052;-67
2023/10/09 15:56:20;;;;;;;5.30;1.50;;;;;;;;;;5099771;28;20064;-67
2023/10/09 15:58:48;;;;;;;5.63;1.40;;;;;;;;;;5107594;28;20131;-67
2023/10/09 16:01:18;;;;;;;5.53;1.38;;;;;;;;;;5104925;28;20471;-67
2023/10/09 16:03:47;;;;;;;3.95;1.10;;;;;;;;;;5110247;28;20043;-67